sensor_id;sensor_type;location;lat;lon;timestamp;pressure;altitude;pressure_sealevel;temperature;humidity
14253;BME280;7210;51.502;10.722;2024-01-10T00:02:02;101106.75;;;-8.77;91.66
14253;BME280;7210;51.502;10.722;2024-01-10T00:04:29;101104.09;;;-8.76;91.29
14253;BME280;7210;51.502;10.722;2024-01-10T00:06:58;101112.44;;;-8.71;91.12
14253;BME280;7210;51.502;10.722;2024-01-10T00:09:25;101106.50;;;-8.71;91.26
14253;BME280;7210;51.502;10.722;2024-01-10T00:11:52;101109.06;;;-8.71;91.46
14253;BME280;7210;51.502;10.722;2024-01-10T00:14:19;101121.56;;;-8.65;91.46
14253;BME280;7210;51.502;10.722;2024-01-10T00:16:46;101122.47;;;-8.66;91.46
14253;BME280;7210;51.502;10.722;2024-01-10T00:19:19;101127.19;;;-8.57;91.43
14253;BME280;7210;51.502;10.722;2024-01-10T00:21:46;101131.22;;;-8.52;91.66
14253;BME280;7210;51.502;10.722;2024-01-10T00:24:15;101085.91;;;-8.70;91.86
14253;BME280;7210;51.502;10.722;2024-01-10T00:26:42;101114.09;;;-8.51;91.71
14253;BME280;7210;51.502;10.722;2024-01-10T00:29:09;101118.19;;;-8.47;91.73
14253;BME280;7210;51.502;10.722;2024-01-10T00:31:36;101112.16;;;-8.46;92.07
14253;BME280;7210;51.502;10.722;2024-01-10T00:34:07;101116.22;;;-8.42;92.04
14253;BME280;7210;51.502;10.722;2024-01-10T00:36:34;101111.75;;;-8.37;91.91
14253;BME280;7210;51.502;10.722;2024-01-10T00:39:07;101110.09;;;-8.38;91.52
14253;BME280;7210;51.502;10.722;2024-01-10T00:41:36;101086.53;;;-8.46;91.82
14253;BME280;7210;51.502;10.722;2024-01-10T00:44:03;101078.38;;;-8.54;92.04
14253;BME280;7210;51.502;10.722;2024-01-10T00:46:30;101059.88;;;-8.61;91.25
14253;BME280;7210;51.502;10.722;2024-01-10T00:48:57;101050.88;;;-8.69;91.43
14253;BME280;7210;51.502;10.722;2024-01-10T00:51:24;101045.13;;;-8.74;91.52
14253;BME280;7210;51.502;10.722;2024-01-10T00:53:52;101031.84;;;-8.82;91.78
14253;BME280;7210;51.502;10.722;2024-01-10T00:56:19;101038.63;;;-8.81;91.97
14253;BME280;7210;51.502;10.722;2024-01-10T00:58:47;101052.75;;;-8.73;91.58
14253;BME280;7210;51.502;10.722;2024-01-10T01:01:14;101046.78;;;-8.73;91.63
14253;BME280;7210;51.502;10.722;2024-01-10T01:03:41;101065.09;;;-8.62;91.84
14253;BME280;7210;51.502;10.722;2024-01-10T01:06:08;101059.81;;;-8.59;92.12
14253;BME280;7210;51.502;10.722;2024-01-10T01:08:35;101063.28;;;-8.60;92.00
14253;BME280;7210;51.502;10.722;2024-01-10T01:11:03;101063.44;;;-8.63;92.07
14253;BME280;7210;51.502;10.722;2024-01-10T01:13:30;101066.00;;;-8.63;91.65
14253;BME280;7210;51.502;10.722;2024-01-10T01:16:03;101049.13;;;-8.69;92.18
14253;BME280;7210;51.502;10.722;2024-01-10T01:18:30;101036.53;;;-8.73;91.47
14253;BME280;7210;51.502;10.722;2024-01-10T01:20:58;101019.09;;;-8.84;91.59
14253;BME280;7210;51.502;10.722;2024-01-10T01:23:25;100998.50;;;-8.99;91.92
14253;BME280;7210;51.502;10.722;2024-01-10T01:25:52;100987.63;;;-9.04;91.48
14253;BME280;7210;51.502;10.722;2024-01-10T01:28:19;100976.91;;;-9.12;91.27
14253;BME280;7210;51.502;10.722;2024-01-10T01:30:46;100988.81;;;-9.11;91.73
14253;BME280;7210;51.502;10.722;2024-01-10T01:33:15;100995.59;;;-9.10;91.72
14253;BME280;7210;51.502;10.722;2024-01-10T01:35:42;100990.59;;;-9.13;92.33
14253;BME280;7210;51.502;10.722;2024-01-10T01:38:09;101003.13;;;-9.07;91.68
14253;BME280;7210;51.502;10.722;2024-01-10T01:40:36;100993.09;;;-9.12;91.60
14253;BME280;7210;51.502;10.722;2024-01-10T01:43:19;100977.38;;;-9.23;91.91
14253;BME280;7210;51.502;10.722;2024-01-10T01:45:50;100978.22;;;-9.22;91.87
14253;BME280;7210;51.502;10.722;2024-01-10T01:48:20;100979.25;;;-9.26;91.75
14253;BME280;7210;51.502;10.722;2024-01-10T01:50:53;100976.09;;;-9.31;91.81
14253;BME280;7210;51.502;10.722;2024-01-10T01:53:22;100961.16;;;-9.40;92.26
14253;BME280;7210;51.502;10.722;2024-01-10T01:55:50;100961.97;;;-9.40;92.14
14253;BME280;7210;51.502;10.722;2024-01-10T01:58:17;100973.16;;;-9.42;92.16
14253;BME280;7210;51.502;10.722;2024-01-10T02:00:46;100957.19;;;-9.47;92.09
14253;BME280;7210;51.502;10.722;2024-01-10T02:03:13;100951.44;;;-9.52;92.32
14253;BME280;7210;51.502;10.722;2024-01-10T02:05:46;100955.03;;;-9.56;92.57
14253;BME280;7210;51.502;10.722;2024-01-10T02:08:14;100951.59;;;-9.55;92.32
14253;BME280;7210;51.502;10.722;2024-01-10T02:10:41;100959.31;;;-9.57;92.47
14253;BME280;7210;51.502;10.722;2024-01-10T02:13:08;100956.97;;;-9.61;92.69
14253;BME280;7210;51.502;10.722;2024-01-10T02:15:38;100956.13;;;-9.62;92.74
14253;BME280;7210;51.502;10.722;2024-01-10T02:18:05;100958.81;;;-9.65;92.76
14253;BME280;7210;51.502;10.722;2024-01-10T02:20:33;100964.00;;;-9.66;92.87
14253;BME280;7210;51.502;10.722;2024-01-10T02:23:01;100975.06;;;-9.66;92.50
14253;BME280;7210;51.502;10.722;2024-01-10T02:25:30;100970.78;;;-9.65;92.98
14253;BME280;7210;51.502;10.722;2024-01-10T02:27:57;100978.38;;;-9.64;92.76
14253;BME280;7210;51.502;10.722;2024-01-10T02:30:24;100969.13;;;-9.66;93.15
14253;BME280;7210;51.502;10.722;2024-01-10T02:32:51;100961.59;;;-9.69;93.31
14253;BME280;7210;51.502;10.722;2024-01-10T02:35:18;100960.69;;;-9.68;93.08
14253;BME280;7210;51.502;10.722;2024-01-10T02:37:46;100961.66;;;-9.71;92.95
14253;BME280;7210;51.502;10.722;2024-01-10T02:40:15;100963.28;;;-9.70;92.99
14253;BME280;7210;51.502;10.722;2024-01-10T02:42:44;100976.94;;;-9.69;93.48
14253;BME280;7210;51.502;10.722;2024-01-10T02:45:11;100971.06;;;-9.71;93.08
14253;BME280;7210;51.502;10.722;2024-01-10T02:47:38;100966.06;;;-9.74;93.37
14253;BME280;7210;51.502;10.722;2024-01-10T02:50:07;100961.91;;;-9.77;93.12
14253;BME280;7210;51.502;10.722;2024-01-10T02:52:34;100962.88;;;-9.79;92.91
14253;BME280;7210;51.502;10.722;2024-01-10T02:55:01;100962.19;;;-9.83;93.03
14253;BME280;7210;51.502;10.722;2024-01-10T02:57:28;100959.69;;;-9.84;93.00
14253;BME280;7210;51.502;10.722;2024-01-10T02:59:56;100954.81;;;-9.90;93.13
14253;BME280;7210;51.502;10.722;2024-01-10T03:02:23;100954.63;;;-9.86;93.05
14253;BME280;7210;51.502;10.722;2024-01-10T03:04:51;100954.56;;;-9.84;93.51
14253;BME280;7210;51.502;10.722;2024-01-10T03:07:18;100947.91;;;-9.88;93.72
14253;BME280;7210;51.502;10.722;2024-01-10T03:09:49;100946.25;;;-9.89;93.05
14253;BME280;7210;51.502;10.722;2024-01-10T03:12:26;100946.41;;;-9.92;93.52
14253;BME280;7210;51.502;10.722;2024-01-10T03:15:23;100931.22;;;-9.95;93.63
14253;BME280;7210;51.502;10.722;2024-01-10T03:18:06;100927.94;;;-9.99;93.91
14253;BME280;7210;51.502;10.722;2024-01-10T03:20:50;100936.56;;;-10.01;93.32
14253;BME280;7210;51.502;10.722;2024-01-10T03:23:42;100932.59;;;-10.07;93.79
14253;BME280;7210;51.502;10.722;2024-01-10T03:26:24;100933.53;;;-10.09;93.46
14253;BME280;7210;51.502;10.722;2024-01-10T03:29:21;100930.19;;;-10.11;93.58
14253;BME280;7210;51.502;10.722;2024-01-10T03:31:59;100935.31;;;-10.11;93.77
14253;BME280;7210;51.502;10.722;2024-01-10T03:34:43;100935.31;;;-10.11;93.94
14253;BME280;7210;51.502;10.722;2024-01-10T03:37:32;100924.41;;;-10.15;93.79
14253;BME280;7210;51.502;10.722;2024-01-10T03:40:18;100919.41;;;-10.18;93.82
14253;BME280;7210;51.502;10.722;2024-01-10T03:43:03;100914.31;;;-10.18;93.96
14253;BME280;7210;51.502;10.722;2024-01-10T03:45:39;100905.03;;;-10.20;94.15
14253;BME280;7210;51.502;10.722;2024-01-10T03:48:36;100915.34;;;-10.22;94.28
14253;BME280;7210;51.502;10.722;2024-01-10T03:51:38;100925.47;;;-10.20;94.36
14253;BME280;7210;51.502;10.722;2024-01-10T03:54:49;100917.91;;;-10.22;94.21
14253;BME280;7210;51.502;10.722;2024-01-10T03:57:36;100926.31;;;-10.20;94.66
14253;BME280;7210;51.502;10.722;2024-01-10T04:00:20;100892.28;;;-10.40;94.52
14253;BME280;7210;51.502;10.722;2024-01-10T04:02:57;100922.16;;;-10.22;94.31
14253;BME280;7210;51.502;10.722;2024-01-10T04:05:45;100917.06;;;-10.22;94.19
14253;BME280;7210;51.502;10.722;2024-01-10T04:08:30;100911.94;;;-10.22;94.55
14253;BME280;7210;51.502;10.722;2024-01-10T04:14:15;100908.88;;;-10.30;94.64
14253;BME280;7210;51.502;10.722;2024-01-10T04:20:24;100925.06;;;-10.30;94.76
14253;BME280;7210;51.502;10.722;2024-01-10T04:23:24;100917.44;;;-10.31;94.86
14253;BME280;7210;51.502;10.722;2024-01-10T04:26:25;100920.75;;;-10.29;94.60
14253;BME280;7210;51.502;10.722;2024-01-10T04:29:17;100905.97;;;-10.41;94.91
14253;BME280;7210;51.502;10.722;2024-01-10T04:31:50;100939.16;;;-10.21;95.09
14253;BME280;7210;51.502;10.722;2024-01-10T04:34:28;100936.75;;;-10.24;94.91
14253;BME280;7210;51.502;10.722;2024-01-10T04:37:16;100924.06;;;-10.27;94.99
14253;BME280;7210;51.502;10.722;2024-01-10T04:40:04;100926.63;;;-10.27;95.16
14253;BME280;7210;51.502;10.722;2024-01-10T04:42:43;100927.53;;;-10.28;95.11
14253;BME280;7210;51.502;10.722;2024-01-10T04:45:28;100931.63;;;-10.24;95.11
14253;BME280;7210;51.502;10.722;2024-01-10T04:48:10;100929.06;;;-10.24;95.24
14253;BME280;7210;51.502;10.722;2024-01-10T04:50:54;100924.06;;;-10.27;95.24
14253;BME280;7210;51.502;10.722;2024-01-10T04:53:42;100929.84;;;-10.22;94.96
14253;BME280;7210;51.502;10.722;2024-01-10T04:56:25;100932.13;;;-10.16;95.26
14253;BME280;7210;51.502;10.722;2024-01-10T04:58:57;100952.91;;;-10.04;95.57
14253;BME280;7210;51.502;10.722;2024-01-10T05:01:24;100966.72;;;-9.89;95.86
14253;BME280;7210;51.502;10.722;2024-01-10T05:03:51;100972.22;;;-9.78;95.81
14253;BME280;7210;51.502;10.722;2024-01-10T05:06:19;100956.22;;;-9.83;95.31
14253;BME280;7210;51.502;10.722;2024-01-10T05:08:46;100976.16;;;-9.71;95.78
14253;BME280;7210;51.502;10.722;2024-01-10T05:11:16;100964.28;;;-9.72;95.62
14253;BME280;7210;51.502;10.722;2024-01-10T05:13:44;100960.94;;;-9.74;95.52
14253;BME280;7210;51.502;10.722;2024-01-10T05:16:11;100939.94;;;-9.81;95.59
14253;BME280;7210;51.502;10.722;2024-01-10T05:18:44;100940.75;;;-9.80;95.56
14253;BME280;7210;51.502;10.722;2024-01-10T05:21:11;100911.00;;;-10.01;95.76
14253;BME280;7210;51.502;10.722;2024-01-10T05:23:38;100927.47;;;-9.88;95.62
14253;BME280;7210;51.502;10.722;2024-01-10T05:26:06;100915.22;;;-10.00;95.49
14253;BME280;7210;51.502;10.722;2024-01-10T05:28:34;100909.34;;;-10.02;95.24
14253;BME280;7210;51.502;10.722;2024-01-10T05:31:01;100901.06;;;-10.07;95.85
14253;BME280;7210;51.502;10.722;2024-01-10T05:33:28;100886.00;;;-10.13;95.22
14253;BME280;7210;51.502;10.722;2024-01-10T05:35:56;100882.75;;;-10.17;95.37
14253;BME280;7210;51.502;10.722;2024-01-10T05:38:24;100888.81;;;-10.19;95.25
14253;BME280;7210;51.502;10.722;2024-01-10T05:40:51;100896.47;;;-10.19;95.24
14253;BME280;7210;51.502;10.722;2024-01-10T05:43:18;100893.88;;;-10.18;95.48
14253;BME280;7210;51.502;10.722;2024-01-10T05:45:46;100900.63;;;-10.17;95.36
14253;BME280;7210;51.502;10.722;2024-01-10T05:48:13;100896.38;;;-10.16;95.39
14253;BME280;7210;51.502;10.722;2024-01-10T05:50:41;100897.25;;;-10.17;95.62
14253;BME280;7210;51.502;10.722;2024-01-10T05:53:08;100891.34;;;-10.19;95.46
14253;BME280;7210;51.502;10.722;2024-01-10T05:55:36;100892.22;;;-10.19;95.73
14253;BME280;7210;51.502;10.722;2024-01-10T05:58:03;100885.50;;;-10.21;95.41
14253;BME280;7210;51.502;10.722;2024-01-10T06:00:31;100886.41;;;-10.22;95.82
14253;BME280;7210;51.502;10.722;2024-01-10T06:02:59;100886.41;;;-10.22;95.85
14253;BME280;7210;51.502;10.722;2024-01-10T06:05:26;100888.94;;;-10.22;95.49
14253;BME280;7210;51.502;10.722;2024-01-10T06:07:53;100881.34;;;-10.24;95.85
14253;BME280;7210;51.502;10.722;2024-01-10T06:10:20;100867.25;;;-10.32;95.87
14253;BME280;7210;51.502;10.722;2024-01-10T06:12:47;100874.78;;;-10.29;95.87
14253;BME280;7210;51.502;10.722;2024-01-10T06:15:14;100846.56;;;-10.46;95.68
14253;BME280;7210;51.502;10.722;2024-01-10T06:17:41;100893.16;;;-10.21;95.75
14253;BME280;7210;51.502;10.722;2024-01-10T06:20:11;100888.00;;;-10.20;95.83
14253;BME280;7210;51.502;10.722;2024-01-10T06:22:38;100887.25;;;-10.22;95.62
14253;BME280;7210;51.502;10.722;2024-01-10T06:25:06;100879.63;;;-10.23;95.79
14253;BME280;7210;51.502;10.722;2024-01-10T06:27:33;100876.31;;;-10.25;95.49
14253;BME280;7210;51.502;10.722;2024-01-10T06:30:00;100875.53;;;-10.27;96.08
14253;BME280;7210;51.502;10.722;2024-01-10T06:32:28;100875.53;;;-10.27;95.87
14253;BME280;7210;51.502;10.722;2024-01-10T06:34:55;100875.63;;;-10.29;95.73
14253;BME280;7210;51.502;10.722;2024-01-10T06:37:28;100819.88;;;-10.59;95.81
14253;BME280;7210;51.502;10.722;2024-01-10T06:39:55;100864.69;;;-10.32;95.89
14253;BME280;7210;51.502;10.722;2024-01-10T06:42:23;100868.16;;;-10.33;95.62
14253;BME280;7210;51.502;10.722;2024-01-10T06:44:50;100866.50;;;-10.34;95.72
14253;BME280;7210;51.502;10.722;2024-01-10T06:47:17;100876.72;;;-10.34;95.85
14253;BME280;7210;51.502;10.722;2024-01-10T06:49:44;100874.22;;;-10.36;96.03
14253;BME280;7210;51.502;10.722;2024-01-10T06:52:11;100873.31;;;-10.35;95.87
14253;BME280;7210;51.502;10.722;2024-01-10T06:54:40;100867.34;;;-10.35;95.89
14253;BME280;7210;51.502;10.722;2024-01-10T06:57:07;100872.41;;;-10.34;96.02
14253;BME280;7210;51.502;10.722;2024-01-10T06:59:34;100882.63;;;-10.34;95.85
14253;BME280;7210;51.502;10.722;2024-01-10T07:02:01;100878.38;;;-10.33;95.99
14253;BME280;7210;51.502;10.722;2024-01-10T07:04:37;100874.31;;;-10.39;95.95
14253;BME280;7210;51.502;10.722;2024-01-10T07:07:22;100888.59;;;-10.33;95.85
14253;BME280;7210;51.502;10.722;2024-01-10T07:09:56;100862.72;;;-10.45;96.20
14253;BME280;7210;51.502;10.722;2024-01-10T07:12:23;100881.94;;;-10.37;95.77
14253;BME280;7210;51.502;10.722;2024-01-10T07:14:51;100887.03;;;-10.37;95.93
14253;BME280;7210;51.502;10.722;2024-01-10T07:17:18;100887.03;;;-10.37;96.10
14253;BME280;7210;51.502;10.722;2024-01-10T07:19:47;100894.50;;;-10.33;96.13
14253;BME280;7210;51.502;10.722;2024-01-10T07:22:15;100932.66;;;-10.08;96.33
14253;BME280;7210;51.502;10.722;2024-01-10T07:24:43;100937.56;;;-10.04;96.17
14253;BME280;7210;51.502;10.722;2024-01-10T07:27:15;100923.31;;;-10.09;96.57
14253;BME280;7210;51.502;10.722;2024-01-10T07:29:42;100919.16;;;-10.12;96.24
14253;BME280;7210;51.502;10.722;2024-01-10T07:32:09;100922.53;;;-10.11;96.09
14253;BME280;7210;51.502;10.722;2024-01-10T07:34:37;100919.97;;;-10.11;96.18
14253;BME280;7210;51.502;10.722;2024-01-10T07:37:04;100934.34;;;-10.09;96.50
14253;BME280;7210;51.502;10.722;2024-01-10T07:39:31;100930.09;;;-10.08;96.67
14253;BME280;7210;51.502;10.722;2024-01-10T07:41:59;100930.09;;;-10.08;96.54
14253;BME280;7210;51.502;10.722;2024-01-10T07:44:29;100933.41;;;-10.06;96.22
14253;BME280;7210;51.502;10.722;2024-01-10T07:46:56;100941.78;;;-10.03;96.22
14253;BME280;7210;51.502;10.722;2024-01-10T07:49:23;100913.50;;;-10.18;96.09
14253;BME280;7210;51.502;10.722;2024-01-10T07:51:52;100934.81;;;-10.01;96.30
14253;BME280;7210;51.502;10.722;2024-01-10T07:54:20;100934.72;;;-9.98;96.47
14253;BME280;7210;51.502;10.722;2024-01-10T07:56:47;100941.44;;;-9.95;96.67
14253;BME280;7210;51.502;10.722;2024-01-10T07:59:14;100948.19;;;-9.94;96.65
14253;BME280;7210;51.502;10.722;2024-01-10T08:01:54;100961.34;;;-9.83;96.83
14253;BME280;7210;51.502;10.722;2024-01-10T08:04:22;100962.88;;;-9.79;96.78
14253;BME280;7210;51.502;10.722;2024-01-10T08:06:49;100974.22;;;-9.66;97.03
14253;BME280;7210;51.502;10.722;2024-01-10T08:09:16;100975.78;;;-9.62;96.94
14253;BME280;7210;51.502;10.722;2024-01-10T08:11:44;100945.81;;;-9.79;96.58
14253;BME280;7210;51.502;10.722;2024-01-10T08:14:12;100971.91;;;-9.52;96.85
14253;BME280;7210;51.502;10.722;2024-01-10T08:16:39;100973.44;;;-9.48;97.29
14253;BME280;7210;51.502;10.722;2024-01-10T08:19:08;100973.16;;;-9.42;97.16
14253;BME280;7210;51.502;10.722;2024-01-10T08:21:35;100986.59;;;-9.37;97.01
14253;BME280;7210;51.502;10.722;2024-01-10T08:24:07;100982.16;;;-9.34;96.89
14253;BME280;7210;51.502;10.722;2024-01-10T08:26:34;100987.97;;;-9.30;97.07
14253;BME280;7210;51.502;10.722;2024-01-10T08:29:03;100987.78;;;-9.26;97.01
14253;BME280;7210;51.502;10.722;2024-01-10T08:31:31;100990.88;;;-9.19;97.09
14253;BME280;7210;51.502;10.722;2024-01-10T08:33:58;101004.16;;;-9.11;97.40
14253;BME280;7210;51.502;10.722;2024-01-10T08:36:27;101004.59;;;-9.02;96.91
14253;BME280;7210;51.502;10.722;2024-01-10T08:38:54;101009.06;;;-8.88;97.24
14253;BME280;7210;51.502;10.722;2024-01-10T08:41:25;101004.72;;;-8.86;97.56
14253;BME280;7210;51.502;10.722;2024-01-10T08:43:53;101015.94;;;-8.70;97.28
14253;BME280;7210;51.502;10.722;2024-01-10T08:46:20;101020.75;;;-8.64;97.48
14253;BME280;7210;51.502;10.722;2024-01-10T08:48:47;101015.34;;;-8.58;97.62
14253;BME280;7210;51.502;10.722;2024-01-10T08:51:14;101021.09;;;-8.53;97.76
14253;BME280;7210;51.502;10.722;2024-01-10T08:53:45;101018.25;;;-8.47;97.45
14253;BME280;7210;51.502;10.722;2024-01-10T08:56:12;101018.78;;;-8.41;97.71
14253;BME280;7210;51.502;10.722;2024-01-10T08:58:43;101024.44;;;-8.34;97.42
14253;BME280;7210;51.502;10.722;2024-01-10T09:01:11;101027.63;;;-8.29;97.69
14253;BME280;7210;51.502;10.722;2024-01-10T09:03:38;101017.97;;;-8.24;97.63
14253;BME280;7210;51.502;10.722;2024-01-10T09:06:05;101011.78;;;-8.20;97.70
14253;BME280;7210;51.502;10.722;2024-01-10T09:08:37;101019.91;;;-8.12;97.14
14253;BME280;7210;51.502;10.722;2024-01-10T09:11:07;101022.19;;;-8.06;96.96
14253;BME280;7210;51.502;10.722;2024-01-10T09:13:34;101011.00;;;-8.05;96.98
14253;BME280;7210;51.502;10.722;2024-01-10T09:16:04;101032.44;;;-7.89;96.96
14253;BME280;7210;51.502;10.722;2024-01-10T09:18:42;101003.78;;;-7.97;97.48
14253;BME280;7210;51.502;10.722;2024-01-10T09:21:33;101001.66;;;-7.89;97.36
14253;BME280;7210;51.502;10.722;2024-01-10T09:24:19;101007.28;;;-7.83;96.76
14253;BME280;7210;51.502;10.722;2024-01-10T09:27:15;101007.53;;;-7.70;97.19
14253;BME280;7210;51.502;10.722;2024-01-10T09:30:19;101005.56;;;-7.65;96.72
14253;BME280;7210;51.502;10.722;2024-01-10T09:32:46;101013.69;;;-7.57;96.57
14253;BME280;7210;51.502;10.722;2024-01-10T09:35:14;101030.88;;;-7.42;97.35
14253;BME280;7210;51.502;10.722;2024-01-10T09:37:41;101021.13;;;-7.36;96.58
14253;BME280;7210;51.502;10.722;2024-01-10T09:40:10;101033.09;;;-7.19;96.99
14253;BME280;7210;51.502;10.722;2024-01-10T09:42:44;101019.34;;;-7.18;96.84
14253;BME280;7210;51.502;10.722;2024-01-10T09:45:11;101026.56;;;-7.10;96.47
14253;BME280;7210;51.502;10.722;2024-01-10T09:47:40;101024.50;;;-7.03;96.34
14253;BME280;7210;51.502;10.722;2024-01-10T09:50:10;101006.44;;;-7.02;96.39
14253;BME280;7210;51.502;10.722;2024-01-10T09:53:05;101012.66;;;-6.90;96.15
14253;BME280;7210;51.502;10.722;2024-01-10T09:56:08;101008.59;;;-6.79;96.50
14253;BME280;7210;51.502;10.722;2024-01-10T09:58:49;101014.16;;;-6.71;95.69
14253;BME280;7210;51.502;10.722;2024-01-10T10:01:32;101013.81;;;-6.65;96.18
14253;BME280;7210;51.502;10.722;2024-01-10T10:04:37;101040.03;;;-6.43;96.44
14253;BME280;7210;51.502;10.722;2024-01-10T10:07:08;101036.84;;;-6.32;95.87
14253;BME280;7210;51.502;10.722;2024-01-10T10:09:43;101016.47;;;-6.35;95.47
14253;BME280;7210;51.502;10.722;2024-01-10T10:12:11;101004.34;;;-6.33;95.42
14253;BME280;7210;51.502;10.722;2024-01-10T10:14:51;101016.41;;;-6.20;95.46
14253;BME280;7210;51.502;10.722;2024-01-10T10:17:18;101011.09;;;-6.17;95.32
14253;BME280;7210;51.502;10.722;2024-01-10T10:19:46;101013.25;;;-6.09;95.07
14253;BME280;7210;51.502;10.722;2024-01-10T10:22:13;100998.47;;;-6.06;95.27
14253;BME280;7210;51.502;10.722;2024-01-10T10:24:41;100996.81;;;-6.07;95.01
14253;BME280;7210;51.502;10.722;2024-01-10T10:27:13;101006.03;;;-5.89;94.97
14253;BME280;7210;51.502;10.722;2024-01-10T10:29:53;100979.56;;;-5.91;95.23
14253;BME280;7210;51.502;10.722;2024-01-10T10:32:44;100977.00;;;-5.91;94.65
14253;BME280;7210;51.502;10.722;2024-01-10T10:35:23;100974.97;;;-5.86;94.65
14253;BME280;7210;51.502;10.722;2024-01-10T10:37:52;100997.13;;;-5.69;94.71
14253;BME280;7210;51.502;10.722;2024-01-10T10:40:21;101000.72;;;-5.58;94.64
14253;BME280;7210;51.502;10.722;2024-01-10T10:42:54;101010.13;;;-5.43;94.64
14253;BME280;7210;51.502;10.722;2024-01-10T10:45:23;101009.75;;;-5.37;94.35
14253;BME280;7210;51.502;10.722;2024-01-10T10:47:58;101005.06;;;-5.30;93.95
14253;BME280;7210;51.502;10.722;2024-01-10T10:50:33;100991.25;;;-5.29;94.35
14253;BME280;7210;51.502;10.722;2024-01-10T10:53:03;100975.78;;;-5.29;93.75
14253;BME280;7210;51.502;10.722;2024-01-10T10:55:32;100997.63;;;-5.07;93.66
14253;BME280;7210;51.502;10.722;2024-01-10T10:58:03;100979.00;;;-5.12;93.45
14253;BME280;7210;51.502;10.722;2024-01-10T11:00:33;100987.09;;;-5.04;93.45
14253;BME280;7210;51.502;10.722;2024-01-10T11:03:03;100979.09;;;-4.99;92.83
14253;BME280;7210;51.502;10.722;2024-01-10T11:05:32;100972.06;;;-4.97;92.78
14253;BME280;7210;51.502;10.722;2024-01-10T11:08:04;100989.09;;;-4.81;92.63
14253;BME280;7210;51.502;10.722;2024-01-10T11:10:40;100975.47;;;-4.83;92.83
14253;BME280;7210;51.502;10.722;2024-01-10T11:13:38;100964.03;;;-4.79;92.45
14253;BME280;7210;51.502;10.722;2024-01-10T11:16:49;100954.44;;;-4.77;92.09
14253;BME280;7210;51.502;10.722;2024-01-10T11:19:44;100953.88;;;-4.68;91.98
14253;BME280;7210;51.502;10.722;2024-01-10T11:25:19;100920.44;;;-4.69;91.45
14253;BME280;7210;51.502;10.722;2024-01-10T11:27:52;100955.38;;;-4.51;91.44
14253;BME280;7210;51.502;10.722;2024-01-10T11:30:33;100955.22;;;-4.36;91.23
14253;BME280;7210;51.502;10.722;2024-01-10T11:33:19;100929.50;;;-4.37;91.02
14253;BME280;7210;51.502;10.722;2024-01-10T11:36:08;100922.63;;;-4.37;90.90
14253;BME280;7210;51.502;10.722;2024-01-10T11:38:48;100887.06;;;-4.46;90.37
14253;BME280;7210;51.502;10.722;2024-01-10T11:41:22;100879.31;;;-4.46;90.05
14253;BME280;7210;51.502;10.722;2024-01-10T11:44:46;100904.66;;;-4.26;90.23
14253;BME280;7210;51.502;10.722;2024-01-10T11:47:32;100908.50;;;-4.19;90.00
14253;BME280;7210;51.502;10.722;2024-01-10T11:50:03;100904.66;;;-4.13;89.70
14253;BME280;7210;51.502;10.722;2024-01-10T11:52:44;100941.88;;;-3.91;89.77
14253;BME280;7210;51.502;10.722;2024-01-10T11:55:50;100909.75;;;-3.87;89.07
14253;BME280;7210;51.502;10.722;2024-01-10T11:58:26;100883.63;;;-3.95;88.71
14253;BME280;7210;51.502;10.722;2024-01-10T12:00:53;100872.66;;;-3.98;88.67
14253;BME280;7210;51.502;10.722;2024-01-10T12:03:22;100859.84;;;-4.00;88.38
14253;BME280;7210;51.502;10.722;2024-01-10T12:05:51;100835.38;;;-4.07;88.12
14253;BME280;7210;51.502;10.722;2024-01-10T12:08:20;100871.34;;;-3.91;88.19
14253;BME280;7210;51.502;10.722;2024-01-10T12:10:48;100844.38;;;-4.00;87.47
14253;BME280;7210;51.502;10.722;2024-01-10T12:13:20;100855.53;;;-3.87;87.58
14253;BME280;7210;51.502;10.722;2024-01-10T12:15:47;100840.44;;;-3.93;87.57
14253;BME280;7210;51.502;10.722;2024-01-10T12:18:14;100873.91;;;-3.79;87.70
14253;BME280;7210;51.502;10.722;2024-01-10T12:20:42;100876.38;;;-3.77;87.23
14253;BME280;7210;51.502;10.722;2024-01-10T12:23:12;100887.13;;;-3.71;87.43
14253;BME280;7210;51.502;10.722;2024-01-10T12:25:39;100873.50;;;-3.73;87.30
14253;BME280;7210;51.502;10.722;2024-01-10T12:28:06;100886.91;;;-3.68;87.21
14253;BME280;7210;51.502;10.722;2024-01-10T12:30:34;100888.25;;;-3.63;86.97
14253;BME280;7210;51.502;10.722;2024-01-10T12:33:01;100908.19;;;-3.52;86.46
14253;BME280;7210;51.502;10.722;2024-01-10T12:35:28;100882.97;;;-3.61;86.55
14253;BME280;7210;51.502;10.722;2024-01-10T12:37:56;100888.22;;;-3.50;86.64
14253;BME280;7210;51.502;10.722;2024-01-10T12:40:25;100865.41;;;-3.56;86.53
14253;BME280;7210;51.502;10.722;2024-01-10T12:43:02;100876.25;;;-3.51;86.22
14253;BME280;7210;51.502;10.722;2024-01-10T12:45:30;100864.03;;;-3.49;85.80
14253;BME280;7210;51.502;10.722;2024-01-10T12:47:57;100853.94;;;-3.52;85.75
14253;BME280;7210;51.502;10.722;2024-01-10T12:50:25;100838.94;;;-3.60;85.43
14253;BME280;7210;51.502;10.722;2024-01-10T12:52:52;100838.34;;;-3.63;85.33
14253;BME280;7210;51.502;10.722;2024-01-10T12:55:19;100833.41;;;-3.66;85.38
14253;BME280;7210;51.502;10.722;2024-01-10T12:57:49;100826.91;;;-3.71;85.53
14253;BME280;7210;51.502;10.722;2024-01-10T13:00:17;100840.22;;;-3.65;85.66
14253;BME280;7210;51.502;10.722;2024-01-10T13:02:44;100862.81;;;-3.56;85.32
14253;BME280;7210;51.502;10.722;2024-01-10T13:05:12;100874.28;;;-3.48;85.48
14253;BME280;7210;51.502;10.722;2024-01-10T13:07:44;100868.78;;;-3.43;85.34
14253;BME280;7210;51.502;10.722;2024-01-10T13:10:13;100854.22;;;-3.44;84.72
14253;BME280;7210;51.502;10.722;2024-01-10T13:12:40;100854.22;;;-3.44;84.97
14253;BME280;7210;51.502;10.722;2024-01-10T13:15:10;100853.38;;;-3.45;84.85
14253;BME280;7210;51.502;10.722;2024-01-10T13:17:38;100848.63;;;-3.51;85.13
14253;BME280;7210;51.502;10.722;2024-01-10T13:20:07;100859.41;;;-3.44;84.94
14253;BME280;7210;51.502;10.722;2024-01-10T13:22:35;100869.59;;;-3.43;84.83
14253;BME280;7210;51.502;10.722;2024-01-10T13:25:03;100878.19;;;-3.42;84.83